Time;durP1;ratioP1;P1;durP2;ratioP2;P2;SDS_P1;SDS_P2;PMS_P1;PMS_P2;Temp;Humidity;BMP_temperature;BMP_pressure;BME280_temperature;BME280_humidity;BME280_pressure;Samples;Min_cycle;Max_cycle;Signal;HPM_P1;HPM_P2
2023/03/28 00:00:37;;;;;;;2.13;1.67;;;;;;;8.92;nan;-24066.22;5011846;28;20279;-69
2023/03/28 00:03:03;;;;;;;2.00;1.70;;;;;;;9.09;nan;-24070.88;5012140;28;20184;-69
2023/03/28 00:05:30;;;;;;;3.70;1.77;;;;;;;9.05;nan;-24069.75;5012080;28;20187;-69
2023/03/28 00:07:56;;;;;;;2.00;1.80;;;;;;;9.09;nan;-24071.03;5011913;28;20647;-69
2023/03/28 00:10:21;;;;;;;2.30;1.77;;;;;;;9.09;nan;-24070.88;5011897;28;20262;-69
2023/03/28 00:12:46;;;;;;;2.63;1.90;;;;;;;8.99;nan;-24068.03;5011659;28;20267;-69
2023/03/28 00:15:12;;;;;;;1.83;1.63;;;;;;;9.00;nan;-24068.47;5011917;28;20577;-69
2023/03/28 00:17:40;;;;;;;2.07;1.87;;;;;;;8.84;nan;-24063.94;5011745;28;20260;-69
2023/03/28 00:20:09;;;;;;;2.00;1.80;;;;;;;8.84;nan;-24064.09;5011927;28;20172;-68
2023/03/28 00:22:36;;;;;;;2.10;1.80;;;;;;;8.96;nan;-24067.34;5011544;28;20181;-68
2023/03/28 00:25:05;;;;;;;1.70;1.60;;;;;;;8.87;nan;-24064.78;5011750;28;20183;-69
2023/03/28 00:27:32;;;;;;;1.73;1.53;;;;;;;8.90;nan;-24065.66;5010365;28;20584;-69
2023/03/28 00:29:58;;;;;;;1.70;1.60;;;;;;;9.13;nan;-24072.00;5011756;28;20172;-70
2023/03/28 00:32:23;;;;;;;1.63;1.43;;;;;;;9.13;nan;-24072.16;5011838;28;20238;-69
2023/03/28 00:34:48;;;;;;;2.03;1.60;;;;;;;9.03;nan;-24069.19;5011353;28;20652;-69
2023/03/28 00:37:16;;;;;;;2.23;1.43;;;;;;;8.49;nan;-24054.19;5011744;28;20307;-68
2023/03/28 00:39:48;;;;;;;1.50;1.40;;;;;;;9.04;nan;-24069.59;5011676;28;20226;-69
2023/03/28 00:42:19;;;;;;;1.67;1.50;;;;;;;8.93;nan;-24066.34;5011515;28;20741;-69
2023/03/28 00:44:52;;;;;;;1.63;1.53;;;;;;;8.57;nan;-24056.31;5011787;28;20258;-69
2023/03/28 00:47:40;;;;;;;1.67;1.57;;;;;;;8.81;nan;-24063.09;5011853;28;20164;-69
2023/03/28 00:50:09;;;;;;;1.57;1.47;;;;;;;8.86;nan;-24064.66;5026736;28;20631;-68
2023/03/28 00:52:43;;;;;;;1.83;1.47;;;;;;;8.76;nan;-24061.69;5011669;28;20176;-68
2023/03/28 00:55:18;;;;;;;1.50;1.40;;;;;;;8.49;nan;-24054.19;5011710;28;20185;-69
2023/03/28 00:57:46;;;;;;;1.60;1.50;;;;;;;8.33;nan;-24049.66;5011354;28;20326;-69
2023/03/28 01:00:12;;;;;;;1.60;1.50;;;;;;;8.55;nan;-24055.75;5011555;28;20256;-69
2023/03/28 01:02:44;;;;;;;2.33;1.50;;;;;;;8.33;nan;-24049.66;5011319;28;20207;-69
2023/03/28 01:05:11;;;;;;;1.77;1.67;;;;;;;8.36;nan;-24050.66;5011498;28;20180;-69
2023/03/28 01:07:44;;;;;;;1.87;1.50;;;;;;;8.17;nan;-24045.13;5011404;28;20168;-68
2023/03/28 01:10:10;;;;;;;4.80;2.03;;;;;;;7.91;nan;-24037.88;5011322;28;20716;-68
2023/03/28 01:12:37;;;;;;;2.13;1.90;;;;;;;7.55;nan;-24027.97;5010948;28;20175;-68
2023/03/28 01:15:03;;;;;;;3.43;1.93;;;;;;;7.51;nan;-24026.69;5011662;28;20180;-68
2023/03/28 01:17:29;;;;;;;2.30;1.70;;;;;;;7.68;nan;-24031.53;5011359;28;20202;-69
2023/03/28 01:20:06;;;;;;;1.87;1.73;;;;;;;7.64;nan;-24030.25;5009944;28;20508;-69
2023/03/28 01:22:46;;;;;;;1.97;1.77;;;;;;;7.55;nan;-24027.84;5011001;28;20760;-69
2023/03/28 01:25:26;;;;;;;2.93;1.53;;;;;;;7.17;nan;-24017.06;5010922;28;20172;-69
2023/03/28 01:28:10;;;;;;;2.17;1.97;;;;;;;7.41;nan;-24024.00;5011322;28;20172;-69
2023/03/28 01:31:18;;;;;;;2.27;2.03;;;;;;;7.40;nan;-24023.59;5011060;28;20168;-68
2023/03/28 01:33:43;;;;;;;1.87;1.77;;;;;;;7.26;nan;-24019.63;5011501;28;20672;-68
2023/03/28 01:36:33;;;;;;;1.67;1.57;;;;;;;7.10;nan;-24015.34;5011451;28;20203;-69
2023/03/28 01:39:22;;;;;;;6.93;1.70;;;;;;;7.00;nan;-24012.53;5011387;28;20175;-68
2023/03/28 01:42:19;;;;;;;1.77;1.67;;;;;;;6.98;nan;-24011.81;5010960;28;20207;-69
2023/03/28 01:44:57;;;;;;;2.20;1.77;;;;;;;6.98;nan;-24011.81;5011306;28;20202;-69
2023/03/28 01:47:47;;;;;;;2.13;1.93;;;;;;;6.54;nan;-23999.47;5011399;28;20172;-68
2023/03/28 01:50:30;;;;;;;3.00;1.97;;;;;;;6.83;nan;-24007.56;5010909;28;20172;-69
2023/03/28 01:53:11;;;;;;;1.90;1.80;;;;;;;6.75;nan;-24005.28;5011336;28;20167;-68
2023/03/28 01:55:48;;;;;;;1.80;1.70;;;;;;;6.66;nan;-24002.88;5010758;28;20176;-69
2023/03/28 01:58:41;;;;;;;1.87;1.70;;;;;;;6.59;nan;-24001.03;5011440;28;20234;-69
2023/03/28 02:01:35;;;;;;;1.93;1.43;;;;;;;6.20;nan;-23990.09;5011409;28;20199;-69
2023/03/28 02:04:09;;;;;;;1.60;1.50;;;;;;;6.51;nan;-23998.63;5013090;28;20190;-69
2023/03/28 02:06:37;;;;;;;1.60;1.50;;;;;;;6.47;nan;-23997.63;5012904;28;20287;-70
2023/03/28 02:09:04;;;;;;;1.93;1.80;;;;;;;6.24;nan;-23990.94;5014313;28;20227;-68
2023/03/28 02:11:31;;;;;;;1.80;1.67;;;;;;;6.45;nan;-23996.91;5014150;28;20291;-69
2023/03/28 02:14:01;;;;;;;1.60;1.50;;;;;;;6.13;nan;-23987.97;5014043;28;20176;-69
2023/03/28 02:16:30;;;;;;;1.93;1.60;;;;;;;6.13;nan;-23987.97;5013801;28;20180;-69
2023/03/28 02:18:58;;;;;;;1.60;1.50;;;;;;;5.70;nan;-23976.03;5014038;28;20175;-69
2023/03/28 02:21:38;;;;;;;1.40;1.30;;;;;;;6.24;nan;-23991.09;5013359;28;20196;-69
2023/03/28 02:24:04;;;;;;;1.40;1.30;;;;;;;5.88;nan;-23980.88;5013141;28;20198;-70
2023/03/28 02:26:30;;;;;;;1.73;1.63;;;;;;;6.15;nan;-23988.53;5014044;28;20640;-69
2023/03/28 02:28:57;;;;;;;1.47;1.37;;;;;;;5.86;nan;-23980.44;5013846;28;20188;-68
2023/03/28 02:31:23;;;;;;;1.63;1.53;;;;;;;5.74;nan;-23977.16;5012879;28;20201;-68
2023/03/28 02:33:51;;;;;;;1.77;1.67;;;;;;;6.05;nan;-23985.69;5013026;28;20188;-68
2023/03/28 02:37:00;;;;;;;2.10;1.90;;;;;;;6.04;nan;-23985.56;5012106;28;20204;-68
2023/03/28 02:39:43;;;;;;;1.93;1.73;;;;;;;5.87;nan;-23980.72;5030786;28;20214;-68
2023/03/28 02:42:08;;;;;;;2.80;1.80;;;;;;;5.79;nan;-23978.59;5013487;28;20269;-70
2023/03/28 02:45:18;;;;;;;2.00;1.83;;;;;;;5.79;nan;-23978.59;5013273;28;20168;-70
2023/03/28 02:48:07;;;;;;;1.73;1.63;;;;;;;5.79;nan;-23978.44;5030622;28;20191;-69
2023/03/28 02:50:48;;;;;;;2.27;1.90;;;;;;;5.68;nan;-23975.31;5013316;28;20222;-70
2023/03/28 02:53:31;;;;;;;2.67;2.27;;;;;;;5.70;nan;-23975.88;5013669;28;20674;-69
2023/03/28 02:56:00;;;;;;;1.83;1.60;;;;;;;5.60;nan;-23973.03;5013128;28;20225;-68
2023/03/28 02:58:37;;;;;;;3.60;2.20;;;;;;;5.43;nan;-23968.34;5013323;28;20269;-69
2023/03/28 03:01:05;;;;;;;3.33;1.93;;;;;;;5.19;nan;-23961.66;5012914;28;20194;-70
2023/03/28 03:03:34;;;;;;;2.63;2.10;;;;;;;5.32;nan;-23965.38;5012993;28;20168;-70
2023/03/28 03:06:00;;;;;;;3.10;1.80;;;;;;;5.42;nan;-23968.06;5012938;28;20218;-69
2023/03/28 03:08:26;;;;;;;2.10;1.90;;;;;;;5.20;nan;-23961.97;5013175;28;20263;-68
2023/03/28 03:10:52;;;;;;;4.47;2.33;;;;;;;5.37;nan;-23966.50;5011817;28;20195;-70
2023/03/28 03:13:18;;;;;;;2.43;1.90;;;;;;;5.29;nan;-23964.50;5012707;28;20653;-70
2023/03/28 03:15:44;;;;;;;2.43;2.00;;;;;;;5.24;nan;-23962.94;5011999;28;20176;-69
2023/03/28 03:18:11;;;;;;;2.20;1.73;;;;;;;4.94;nan;-23954.56;5013006;28;20623;-70
2023/03/28 03:20:39;;;;;;;3.03;2.43;;;;;;;4.85;nan;-23952.00;5012971;28;20278;-69
2023/03/28 03:23:06;;;;;;;2.17;1.93;;;;;;;5.00;nan;-23956.25;5012942;28;20172;-69
2023/03/28 03:25:33;;;;;;;1.50;1.40;;;;;;;4.69;nan;-23947.59;5012851;28;20176;-69
2023/03/28 03:28:00;;;;;;;4.67;2.40;;;;;;;4.69;nan;-23947.44;5010417;28;20231;-69
2023/03/28 03:30:26;;;;;;;2.73;1.80;;;;;;;4.69;nan;-23947.44;5008421;28;20176;-70
2023/03/28 03:32:51;;;;;;;2.30;2.07;;;;;;;2.52;nan;-23886.31;5027837;28;20287;-69
2023/03/28 03:35:18;;;;;;;2.37;1.80;;;;;;;4.90;nan;-23953.56;5012749;28;20172;-69
2023/03/28 03:37:44;;;;;;;1.50;1.40;;;;;;;4.68;nan;-23947.31;5010936;28;20663;-69
2023/03/28 03:40:09;;;;;;;2.07;1.87;;;;;;;4.83;nan;-23951.44;5027774;28;20226;-69
2023/03/28 03:42:35;;;;;;;1.60;1.50;;;;;;;4.80;nan;-23950.72;5012552;28;20200;-69
2023/03/28 03:45:01;;;;;;;2.60;2.10;;;;;;;4.75;nan;-23949.31;5012575;28;20654;-69
2023/03/28 03:47:26;;;;;;;2.23;2.03;;;;;;;4.74;nan;-23949.00;5012480;28;20183;-69
2023/03/28 03:49:52;;;;;;;2.30;2.10;;;;;;;4.14;nan;-23931.94;5012522;28;20207;-69
2023/03/28 03:52:17;;;;;;;2.27;2.07;;;;;;;4.40;nan;-23939.34;5011275;28;20172;-69
2023/03/28 03:54:43;;;;;;;2.23;2.03;;;;;;;4.73;nan;-23948.72;5012584;28;20641;-69
2023/03/28 03:57:08;;;;;;;2.17;1.80;;;;;;;4.53;nan;-23943.03;5012152;28;20176;-69
2023/03/28 03:59:33;;;;;;;1.80;1.70;;;;;;;4.64;nan;-23946.03;5012190;28;20179;-69
2023/03/28 04:02:00;;;;;;;2.60;2.40;;;;;;;4.67;nan;-23947.03;5011696;28;20207;-69
2023/03/28 04:04:26;;;;;;;2.23;2.00;;;;;;;4.77;nan;-23949.72;5012013;28;20176;-69
2023/03/28 04:06:52;;;;;;;2.87;2.37;;;;;;;4.83;nan;-23951.44;5011791;28;20607;-68
2023/03/28 04:09:19;;;;;;;1.87;1.77;;;;;;;4.47;nan;-23941.19;5011821;28;20183;-69
2023/03/28 04:11:44;;;;;;;2.07;1.83;;;;;;;4.41;nan;-23939.75;5011765;28;20656;-69
2023/03/28 04:14:10;;;;;;;2.23;1.77;;;;;;;4.79;nan;-23950.28;5011836;28;20204;-69
2023/03/28 04:16:36;;;;;;;2.73;1.90;;;;;;;4.68;nan;-23947.31;5007274;28;20196;-70
2023/03/28 04:19:02;;;;;;;2.10;1.90;;;;;;;4.43;nan;-23940.34;5010480;28;20172;-69
2023/03/28 04:21:31;;;;;;;1.93;1.77;;;;;;;4.63;nan;-23945.75;5011754;28;20227;-69
2023/03/28 04:23:56;;;;;;;1.93;1.77;;;;;;;4.62;nan;-23945.47;5011832;28;20164;-69
2023/03/28 04:26:25;;;;;;;2.40;1.77;;;;;;;4.66;nan;-23946.59;5010723;28;20187;-70
2023/03/28 04:28:52;;;;;;;2.20;2.00;;;;;;;4.78;nan;-23950.16;5011453;28;20175;-69
2023/03/28 04:31:18;;;;;;;1.60;1.50;;;;;;;4.80;nan;-23950.72;5011559;28;20539;-70
2023/03/28 04:33:44;;;;;;;2.47;1.47;;;;;;;4.66;nan;-23946.75;5005022;28;20192;-70
2023/03/28 04:36:10;;;;;;;2.10;1.90;;;;;;;4.89;nan;-23953.13;5010202;28;20230;-70
2023/03/28 04:38:35;;;;;;;1.77;1.63;;;;;;;4.53;nan;-23943.03;5011546;28;20200;-70
2023/03/28 04:41:03;;;;;;;3.40;1.77;;;;;;;4.38;nan;-23938.91;5010244;28;20742;-69
2023/03/28 04:43:32;;;;;;;1.47;1.37;;;;;;;4.64;nan;-23946.16;5010907;28;20180;-70
2023/03/28 04:45:57;;;;;;;1.70;1.60;;;;;;;4.28;nan;-23935.91;5011002;28;20259;-69
2023/03/28 04:48:25;;;;;;;1.70;1.60;;;;;;;4.58;nan;-23944.47;5010818;28;20278;-70
2023/03/28 04:50:51;;;;;;;1.87;1.37;;;;;;;4.94;nan;-23954.56;5007274;28;20184;-68
2023/03/28 04:53:16;;;;;;;1.97;1.70;;;;;;;4.93;nan;-23954.28;4999877;28;20177;-69
2023/03/28 04:55:47;;;;;;;2.00;1.60;;;;;;;4.86;nan;-23952.28;5011644;28;20191;-68
2023/03/28 04:58:14;;;;;;;1.90;1.80;;;;;;;4.70;nan;-23947.72;4371128;28;21518;-68
2023/03/28 05:00:41;;;;;;;1.40;1.30;;;;;;;4.70;nan;-23947.72;5010799;28;20254;-68
2023/03/28 05:03:12;;;;;;;1.20;1.20;;;;;;;5.00;nan;-23956.25;5010821;28;20259;-69
2023/03/28 05:05:37;;;;;;;6.53;1.80;;;;;;;4.75;nan;-23949.31;5010912;28;20175;-70
2023/03/28 05:08:03;;;;;;;1.47;1.37;;;;;;;4.82;nan;-23951.28;5010530;28;20172;-69
2023/03/28 05:10:28;;;;;;;1.73;1.63;;;;;;;4.97;nan;-23955.28;5011622;28;20200;-70
2023/03/28 05:12:53;;;;;;;1.60;1.50;;;;;;;4.74;nan;-23948.88;5009505;28;20615;-70
2023/03/28 05:15:19;;;;;;;1.37;1.27;;;;;;;4.88;nan;-23953.00;5009872;28;20191;-69
2023/03/28 05:17:44;;;;;;;1.67;1.57;;;;;;;5.02;nan;-23956.84;5002585;28;20184;-69
2023/03/28 05:20:10;;;;;;;1.30;1.20;;;;;;;4.91;nan;-23953.72;5010863;28;20605;-70
2023/03/28 05:22:36;;;;;;;1.67;1.57;;;;;;;5.12;nan;-23959.69;5010353;28;20275;-69
2023/03/28 05:25:03;;;;;;;1.50;1.40;;;;;;;5.02;nan;-23956.69;5010964;28;20180;-70
2023/03/28 05:27:28;;;;;;;1.60;1.50;;;;;;;4.82;nan;-23951.16;5010763;28;20171;-69
2023/03/28 05:29:55;;;;;;;1.90;1.80;;;;;;;4.25;nan;-23935.22;5010956;28;20169;-69
2023/03/28 05:32:20;;;;;;;1.97;1.87;;;;;;;5.08;nan;-23958.41;5010856;28;20172;-70
2023/03/28 05:34:46;;;;;;;1.87;1.77;;;;;;;4.98;nan;-23955.56;5011039;28;20176;-69
2023/03/28 05:37:12;;;;;;;1.20;1.20;;;;;;;4.99;nan;-23955.84;5010488;28;20255;-70
2023/03/28 05:39:38;;;;;;;1.20;1.20;;;;;;;5.00;nan;-23956.25;5013566;28;20180;-70
2023/03/28 05:42:04;;;;;;;1.70;1.60;;;;;;;5.09;nan;-23958.81;5029395;28;20303;-70
2023/03/28 05:44:29;;;;;;;1.53;1.23;;;;;;;4.74;nan;-23948.88;5014208;28;20710;-69
2023/03/28 05:46:55;;;;;;;1.30;1.27;;;;;;;4.91;nan;-23953.72;5014367;28;20176;-69
2023/03/28 05:49:21;;;;;;;1.90;1.60;;;;;;;4.12;nan;-23931.50;5013222;28;20176;-70
2023/03/28 05:51:46;;;;;;;1.57;1.47;;;;;;;5.08;nan;-23958.53;5014020;28;20176;-69
2023/03/28 05:54:12;;;;;;;1.30;1.20;;;;;;;5.13;nan;-23959.97;5014321;28;20255;-70
2023/03/28 05:56:38;;;;;;;1.70;1.47;;;;;;;5.12;nan;-23959.69;5014275;28;20295;-69
2023/03/28 05:59:04;;;;;;;1.97;1.53;;;;;;;5.68;nan;-23975.31;5013930;28;20290;-70
2023/03/28 06:01:30;;;;;;;1.43;1.33;;;;;;;5.80;nan;-23978.72;5014567;28;20634;-70
2023/03/28 06:03:56;;;;;;;1.47;1.37;;;;;;;5.98;nan;-23983.84;5014432;28;20612;-70
2023/03/28 06:06:21;;;;;;;1.77;1.67;;;;;;;5.85;nan;-23980.16;5013098;28;20230;-69
2023/03/28 06:08:47;;;;;;;1.57;1.47;;;;;;;5.65;nan;-23974.59;5014627;28;20659;-70
2023/03/28 06:11:14;;;;;;;2.30;2.00;;;;;;;5.91;nan;-23981.72;5014334;28;20176;-70
2023/03/28 06:13:40;;;;;;;2.23;1.70;;;;;;;5.93;nan;-23982.44;5029542;28;20186;-70
2023/03/28 06:16:05;;;;;;;7.10;1.53;;;;;;;5.74;nan;-23977.16;5014151;28;20169;-70
2023/03/28 06:18:31;;;;;;;1.40;1.30;;;;;;;5.88;nan;-23980.88;5013870;28;20545;-70
2023/03/28 06:20:57;;;;;;;1.73;1.63;;;;;;;5.56;nan;-23971.91;5012502;28;20291;-69
2023/03/28 06:23:23;;;;;;;1.50;1.40;;;;;;;5.84;nan;-23979.88;5013810;28;20172;-70
2023/03/28 06:25:49;;;;;;;1.53;1.43;;;;;;;5.95;nan;-23982.84;5013844;28;20316;-70
2023/03/28 06:28:15;;;;;;;8.23;2.23;;;;;;;5.97;nan;-23983.56;5013952;28;20319;-69
2023/03/28 06:30:40;;;;;;;1.50;1.40;;;;;;;6.34;nan;-23993.78;5013784;28;20695;-69
2023/03/28 06:33:06;;;;;;;2.03;1.80;;;;;;;6.32;nan;-23993.22;5013528;28;20187;-69
2023/03/28 06:35:32;;;;;;;4.10;2.17;;;;;;;6.34;nan;-23993.78;5013453;28;20227;-70
2023/03/28 06:37:58;;;;;;;2.00;1.77;;;;;;;6.30;nan;-23992.66;5013636;28;20323;-69
2023/03/28 06:40:24;;;;;;;2.20;2.00;;;;;;;6.28;nan;-23992.09;5013222;28;20211;-70
2023/03/28 06:42:49;;;;;;;2.63;2.17;;;;;;;6.01;nan;-23984.69;5013620;28;20608;-68
2023/03/28 06:45:15;;;;;;;2.20;2.00;;;;;;;6.05;nan;-23985.69;5013486;28;20175;-71
2023/03/28 06:47:40;;;;;;;4.23;2.30;;;;;;;6.53;nan;-23999.19;5013135;28;20195;-70
2023/03/28 06:50:06;;;;;;;2.33;2.13;;;;;;;6.62;nan;-24001.88;5013562;28;20259;-69
2023/03/28 06:52:32;;;;;;;2.67;1.93;;;;;;;6.41;nan;-23995.78;5013855;28;20242;-70
2023/03/28 06:54:57;;;;;;;2.97;2.30;;;;;;;6.62;nan;-24001.75;5012788;28;20209;-70
2023/03/28 06:57:23;;;;;;;2.60;1.93;;;;;;;6.80;nan;-24006.72;5013336;28;20703;-70
2023/03/28 06:59:50;;;;;;;2.30;2.10;;;;;;;6.78;nan;-24006.28;5013368;28;20176;-71
2023/03/28 07:02:16;;;;;;;1.77;1.67;;;;;;;6.65;nan;-24002.72;5013280;28;20200;-70
2023/03/28 07:04:41;;;;;;;2.20;2.00;;;;;;;6.57;nan;-24000.47;5013445;28;20263;-72
2023/03/28 07:07:08;;;;;;;3.20;2.20;;;;;;;6.95;nan;-24011.09;5012644;28;20191;-71
2023/03/28 07:09:34;;;;;;;3.83;2.07;;;;;;;7.06;nan;-24014.09;5013227;28;20656;-70
2023/03/28 07:11:59;;;;;;;2.60;2.40;;;;;;;7.10;nan;-24015.22;5013471;28;20198;-70
2023/03/28 07:14:25;;;;;;;3.70;2.63;;;;;;;6.96;nan;-24011.38;5013181;28;20591;-70
2023/03/28 07:16:50;;;;;;;2.43;2.10;;;;;;;7.03;nan;-24013.38;5006921;28;20669;-71
2023/03/28 07:19:16;;;;;;;2.40;2.20;;;;;;;7.12;nan;-24015.66;5008779;28;20187;-71
2023/03/28 07:21:41;;;;;;;9.37;1.97;;;;;;;6.76;nan;-24005.72;5013083;28;20223;-69
2023/03/28 07:24:07;;;;;;;2.67;2.07;;;;;;;6.82;nan;-24007.41;5011968;28;20180;-70
2023/03/28 07:26:32;;;;;;;2.27;2.07;;;;;;;6.69;nan;-24003.72;5013061;28;20187;-70
2023/03/28 07:28:57;;;;;;;2.63;2.43;;;;;;;6.66;nan;-24003.00;5013207;28;20226;-70
2023/03/28 07:31:24;;;;;;;3.47;2.10;;;;;;;6.89;nan;-24009.41;5013354;28;20176;-70
2023/03/28 07:33:50;;;;;;;3.10;2.10;;;;;;;6.87;nan;-24008.69;5012595;28;20716;-70
2023/03/28 07:36:20;;;;;;;2.13;1.93;;;;;;;7.02;nan;-24013.09;5012972;28;20176;-71
2023/03/28 07:38:46;;;;;;;2.30;2.07;;;;;;;7.17;nan;-24017.06;5027825;28;20237;-70
2023/03/28 07:41:13;;;;;;;2.33;1.63;;;;;;;7.14;nan;-24016.34;5012377;28;20212;-70
2023/03/28 07:43:38;;;;;;;2.30;2.10;;;;;;;7.27;nan;-24019.91;4735705;28;20188;-70
2023/03/28 07:46:09;;;;;;;2.03;1.87;;;;;;;6.80;nan;-24006.84;5012803;28;20187;-70
2023/03/28 07:48:36;;;;;;;2.17;2.00;;;;;;;7.05;nan;-24013.94;5012530;28;20682;-70
2023/03/28 07:51:05;;;;;;;4.30;2.20;;;;;;;7.02;nan;-24013.09;5013144;28;20214;-71
2023/03/28 07:53:31;;;;;;;8.70;1.97;;;;;;;7.14;nan;-24016.22;5012115;28;20253;-70
2023/03/28 07:55:56;;;;;;;3.43;1.97;;;;;;;7.23;nan;-24018.75;5012287;28;20191;-70
2023/03/28 07:58:22;;;;;;;3.13;1.60;;;;;;;7.04;nan;-24013.66;5012519;28;20228;-70
2023/03/28 08:00:48;;;;;;;2.30;1.90;;;;;;;7.02;nan;-24013.09;5011739;28;20753;-70
2023/03/28 08:03:13;;;;;;;2.17;1.80;;;;;;;7.31;nan;-24021.03;5012340;28;20767;-70
2023/03/28 08:05:39;;;;;;;2.83;2.30;;;;;;;7.69;nan;-24031.66;5012508;28;20211;-70
2023/03/28 08:08:06;;;;;;;3.27;2.33;;;;;;;8.11;nan;-24043.41;5012509;28;20227;-71
2023/03/28 08:10:32;;;;;;;5.17;2.67;;;;;;;7.83;nan;-24035.63;5012369;28;20188;-71
2023/03/28 08:12:57;;;;;;;1.97;1.73;;;;;;;7.30;nan;-24020.88;5012307;28;20183;-70
2023/03/28 08:15:23;;;;;;;1.93;1.73;;;;;;;7.45;nan;-24025.13;5012215;28;20184;-72
2023/03/28 08:17:49;;;;;;;1.87;1.70;;;;;;;7.27;nan;-24020.03;5012108;28;20307;-71
2023/03/28 08:20:14;;;;;;;3.17;2.00;;;;;;;7.23;nan;-24018.91;5011147;28;20602;-71
2023/03/28 08:22:40;;;;;;;1.97;1.77;;;;;;;7.56;nan;-24028.13;5010762;28;20683;-70
2023/03/28 08:25:06;;;;;;;2.80;2.27;;;;;;;7.88;nan;-24037.03;5012356;28;20180;-72
2023/03/28 08:27:32;;;;;;;3.20;2.20;;;;;;;7.42;nan;-24024.16;5012146;28;20180;-70
2023/03/28 08:29:58;;;;;;;4.07;2.47;;;;;;;7.54;nan;-24027.56;5012415;28;20180;-70
2023/03/28 08:32:24;;;;;;;3.20;2.27;;;;;;;7.20;nan;-24017.91;5011894;28;20728;-71
2023/03/28 08:34:49;;;;;;;3.37;2.83;;;;;;;7.08;nan;-24014.66;5012188;28;20264;-70
2023/03/28 08:37:14;;;;;;;2.40;2.20;;;;;;;7.05;nan;-24013.81;5011652;28;20176;-72
2023/03/28 08:39:41;;;;;;;2.80;2.37;;;;;;;7.14;nan;-24016.22;5011931;28;20203;-71
2023/03/28 08:42:31;;;;;;;2.20;2.00;;;;;;;7.57;nan;-24028.41;5011889;28;20224;-71
2023/03/28 08:45:31;;;;;;;3.03;2.23;;;;;;;7.89;nan;-24037.47;5012332;28;20172;-71
2023/03/28 08:48:12;;;;;;;2.53;1.77;;;;;;;7.65;nan;-24030.66;5012373;28;20624;-70
2023/03/28 08:50:43;;;;;;;3.80;2.23;;;;;;;7.69;nan;-24031.81;5012338;28;20184;-69
2023/03/28 08:53:19;;;;;;;2.87;2.33;;;;;;;7.84;nan;-24036.06;5011625;28;20196;-71
2023/03/28 08:55:47;;;;;;;2.13;1.93;;;;;;;7.20;nan;-24017.91;5011949;28;20624;-70
2023/03/28 08:58:22;;;;;;;1.70;1.60;;;;;;;7.75;nan;-24033.50;5026801;28;20239;-72
2023/03/28 09:00:49;;;;;;;1.93;1.80;;;;;;;8.03;nan;-24041.16;5011512;28;20561;-71
2023/03/28 09:03:17;;;;;;;2.40;1.80;;;;;;;8.30;nan;-24048.81;5011763;28;20203;-71
2023/03/28 09:06:15;;;;;;;2.53;2.17;;;;;;;8.53;nan;-24055.31;5011770;28;20180;-71
2023/03/28 09:09:21;;;;;;;4.60;2.20;;;;;;;8.88;nan;-24065.22;5011753;28;20188;-70
2023/03/28 09:12:22;;;;;;;2.27;2.03;;;;;;;8.78;nan;-24062.25;5020364;28;20647;-71
2023/03/28 09:15:03;;;;;;;2.93;2.00;;;;;;;8.45;nan;-24052.91;5033275;28;20183;-70
2023/03/28 09:18:06;;;;;;;2.93;1.83;;;;;;;8.68;nan;-24059.56;5017205;28;20222;-69
2023/03/28 09:20:35;;;;;;;4.47;2.47;;;;;;;8.90;nan;-24065.66;5015842;28;20168;-71
2023/03/28 09:23:17;;;;;;;1.97;1.83;;;;;;;9.01;nan;-24068.63;5048037;28;20188;-72
2023/03/28 09:25:56;;;;;;;2.00;1.80;;;;;;;8.68;nan;-24059.41;5015269;28;20179;-69
2023/03/28 09:28:30;;;;;;;2.00;1.80;;;;;;;8.91;nan;-24065.94;5015140;28;20261;-70
2023/03/28 09:30:57;;;;;;;2.20;2.00;;;;;;;8.80;nan;-24062.94;5015124;28;20655;-70
2023/03/28 09:33:32;;;;;;;2.20;1.90;;;;;;;8.56;nan;-24056.16;5014561;28;20245;-72
2023/03/28 09:35:57;;;;;;;1.70;1.60;;;;;;;8.61;nan;-24057.56;5014384;28;20182;-70
2023/03/28 09:38:47;;;;;;;1.97;1.83;;;;;;;8.41;nan;-24051.91;5014464;28;20176;-70
2023/03/28 09:41:24;;;;;;;2.57;2.10;;;;;;;8.78;nan;-24062.38;5014605;28;20208;-70
2023/03/28 09:43:56;;;;;;;4.47;2.10;;;;;;;8.72;nan;-24060.56;5014508;28;20565;-71
2023/03/28 09:46:42;;;;;;;1.93;1.77;;;;;;;8.77;nan;-24062.09;5013840;28;20224;-70
2023/03/28 09:49:16;;;;;;;4.37;2.00;;;;;;;8.64;nan;-24058.28;5014018;28;20246;-70
2023/03/28 09:51:42;;;;;;;2.13;1.90;;;;;;;8.82;nan;-24063.53;5014132;28;20203;-69
2023/03/28 09:54:08;;;;;;;2.60;2.40;;;;;;;8.77;nan;-24061.97;5014235;28;20238;-70
2023/03/28 09:56:45;;;;;;;2.77;2.03;;;;;;;8.70;nan;-24060.13;5013220;28;20184;-69
2023/03/28 09:59:20;;;;;;;1.90;1.77;;;;;;;8.70;nan;-24059.97;5006576;28;20231;-70
2023/03/28 10:01:50;;;;;;;2.77;2.07;;;;;;;8.37;nan;-24050.94;5014413;28;20211;-69
2023/03/28 10:04:17;;;;;;;2.70;2.33;;;;;;;8.85;nan;-24064.22;5014280;28;20168;-69
2023/03/28 10:06:44;;;;;;;2.13;1.93;;;;;;;8.76;nan;-24061.81;5014142;28;20191;-70
2023/03/28 10:09:18;;;;;;;1.70;1.60;;;;;;;8.65;nan;-24058.56;5014093;28;20670;-71
2023/03/28 10:12:09;;;;;;;2.07;1.83;;;;;;;8.83;nan;-24063.66;5013811;28;20255;-69
2023/03/28 10:14:40;;;;;;;2.20;2.00;;;;;;;8.44;nan;-24052.78;5014130;28;20164;-70
2023/03/28 10:17:24;;;;;;;3.67;2.20;;;;;;;8.73;nan;-24060.97;5013924;28;20237;-71
2023/03/28 10:19:50;;;;;;;2.20;2.00;;;;;;;8.59;nan;-24057.00;5014343;28;20259;-70
2023/03/28 10:22:29;;;;;;;2.37;2.03;;;;;;;8.58;nan;-24056.72;5013786;28;20299;-71
2023/03/28 10:24:56;;;;;;;2.20;1.70;;;;;;;8.64;nan;-24058.44;5013019;28;20164;-70
2023/03/28 10:27:33;;;;;;;2.00;1.80;;;;;;;6.04;nan;-23985.41;5012665;28;20161;-70
2023/03/28 10:30:25;;;;;;;2.33;2.00;;;;;;;8.90;nan;-24065.50;5011812;28;20617;-69
2023/03/28 10:33:17;;;;;;;2.30;1.83;;;;;;;8.75;nan;-24061.53;5013697;28;20179;-71
2023/03/28 10:35:54;;;;;;;1.97;1.83;;;;;;;8.78;nan;-24062.38;5013983;28;20254;-71
2023/03/28 10:38:21;;;;;;;2.00;1.80;;;;;;;8.54;nan;-24055.47;5013588;28;20176;-71
2023/03/28 10:41:11;;;;;;;2.03;1.67;;;;;;;8.80;nan;-24062.81;5013611;28;20195;-70
2023/03/28 10:43:39;;;;;;;1.83;1.70;;;;;;;8.85;nan;-24064.38;5011491;28;20200;-70
2023/03/28 10:46:28;;;;;;;2.20;1.80;;;;;;;9.11;nan;-24071.44;5012899;28;20176;-71
2023/03/28 10:49:02;;;;;;;1.70;1.60;;;;;;;9.11;nan;-24071.59;5013648;28;20180;-70
2023/03/28 10:51:31;;;;;;;2.57;1.97;;;;;;;8.84;nan;-24064.09;5012080;28;20230;-70
2023/03/28 10:54:10;;;;;;;1.83;1.70;;;;;;;8.79;nan;-24062.66;5013425;28;20298;-70
2023/03/28 10:56:41;;;;;;;2.00;1.80;;;;;;;8.58;nan;-24056.72;5013196;28;20164;-70
2023/03/28 10:59:09;;;;;;;3.87;2.00;;;;;;;8.70;nan;-24059.97;5012775;28;20224;-70
2023/03/28 11:01:53;;;;;;;2.33;2.13;;;;;;;8.59;nan;-24057.00;5012531;28;20200;-70
2023/03/28 11:04:36;;;;;;;1.90;1.70;;;;;;;8.83;nan;-24063.81;5012998;28;20602;-71
2023/03/28 11:07:20;;;;;;;2.10;1.90;;;;;;;8.79;nan;-24062.66;5012455;28;20616;-70
2023/03/28 11:10:01;;;;;;;2.50;1.90;;;;;;;8.89;nan;-24065.34;5028521;28;20176;-69
2023/03/28 11:12:41;;;;;;;2.97;2.40;;;;;;;8.85;nan;-24064.38;5013019;28;20682;-70
2023/03/28 11:15:30;;;;;;;2.90;2.20;;;;;;;9.01;nan;-24068.63;5013078;28;20171;-69
2023/03/28 11:18:19;;;;;;;1.87;1.73;;;;;;;8.79;nan;-24062.66;5014745;28;20183;-70
2023/03/28 11:21:12;;;;;;;2.97;2.23;;;;;;;9.01;nan;-24068.63;5012859;28;20168;-70
2023/03/28 11:24:15;;;;;;;2.73;2.10;;;;;;;9.01;nan;-24068.63;5020641;28;20210;-70
2023/03/28 11:27:08;;;;;;;5.23;1.83;;;;;;;8.84;nan;-24063.94;5012608;28;20164;-70
2023/03/28 11:29:50;;;;;;;1.90;1.70;;;;;;;8.88;nan;-24064.94;5012823;28;20164;-71
2023/03/28 11:32:28;;;;;;;2.80;2.30;;;;;;;9.03;nan;-24069.31;5027773;28;20184;-70
2023/03/28 11:35:14;;;;;;;3.10;2.37;;;;;;;8.81;nan;-24063.09;5012201;28;20597;-69
2023/03/28 11:38:23;;;;;;;3.37;2.07;;;;;;;8.67;nan;-24059.28;5011328;28;20334;-70
2023/03/28 11:41:20;;;;;;;2.07;1.93;;;;;;;8.47;nan;-24053.47;5017497;28;20223;-71
2023/03/28 11:43:51;;;;;;;2.37;2.17;;;;;;;8.74;nan;-24061.13;5011924;28;20192;-71
2023/03/28 11:46:25;;;;;;;2.23;2.03;;;;;;;8.67;nan;-24059.28;5012449;28;20260;-71
2023/03/28 11:49:01;;;;;;;5.93;2.20;;;;;;;8.74;nan;-24061.25;5011778;28;20586;-70
2023/03/28 11:52:10;;;;;;;2.60;2.20;;;;;;;9.07;nan;-24070.31;5012417;28;20172;-70
2023/03/28 11:54:46;;;;;;;2.40;1.90;;;;;;;8.91;nan;-24065.78;5010684;28;20201;-69
2023/03/28 11:57:41;;;;;;;2.60;1.93;;;;;;;;;;5067056;28;20567;-70
2023/03/28 12:00:08;;;;;;;2.67;2.10;;;;;;;8.56;nan;-24056.16;5068424;28;20283;-71
2023/03/28 12:03:00;;;;;;;3.23;2.13;;;;;;;8.57;nan;-24056.31;5068641;28;20168;-70
2023/03/28 12:05:33;;;;;;;2.33;2.13;;;;;;;8.28;nan;-24048.22;5068299;28;20514;-70
2023/03/28 12:08:19;;;;;;;2.57;2.37;;;;;;;8.27;nan;-24048.09;5068344;28;20170;-70
2023/03/28 12:10:50;;;;;;;3.03;2.57;;;;;;;8.28;nan;-24048.22;5068449;28;20170;-71
2023/03/28 12:13:30;;;;;;;3.53;2.60;;;;;;;8.57;nan;-24056.44;5068055;28;20174;-70